sensor_id;sensor_type;location;lat;lon;timestamp;P1;durP1;ratioP1;P2;durP2;ratioP2
7181;SDS011;3632;42.724;23.298;2024-02-14T00:00:32;8.87;;;6.37;;
7181;SDS011;3632;42.724;23.298;2024-02-14T00:02:59;7.00;;;5.90;;
7181;SDS011;3632;42.724;23.298;2024-02-14T00:05:27;7.53;;;6.27;;
7181;SDS011;3632;42.724;23.298;2024-02-14T00:07:54;6.80;;;6.10;;
7181;SDS011;3632;42.724;23.298;2024-02-14T00:10:20;7.77;;;6.97;;
7181;SDS011;3632;42.724;23.298;2024-02-14T00:12:47;7.60;;;6.37;;
7181;SDS011;3632;42.724;23.298;2024-02-14T00:15:14;7.20;;;6.50;;
7181;SDS011;3632;42.724;23.298;2024-02-14T00:17:41;6.93;;;6.23;;
7181;SDS011;3632;42.724;23.298;2024-02-14T00:20:08;6.87;;;6.13;;
7181;SDS011;3632;42.724;23.298;2024-02-14T00:22:38;10.30;;;6.70;;
7181;SDS011;3632;42.724;23.298;2024-02-14T00:25:05;7.30;;;6.50;;
7181;SDS011;3632;42.724;23.298;2024-02-14T00:27:34;7.30;;;6.60;;
7181;SDS011;3632;42.724;23.298;2024-02-14T00:30:00;7.13;;;6.43;;
7181;SDS011;3632;42.724;23.298;2024-02-14T00:32:29;7.47;;;6.70;;
7181;SDS011;3632;42.724;23.298;2024-02-14T00:34:56;6.60;;;6.00;;
7181;SDS011;3632;42.724;23.298;2024-02-14T00:37:23;6.80;;;6.20;;
7181;SDS011;3632;42.724;23.298;2024-02-14T00:39:51;7.30;;;6.60;;
7181;SDS011;3632;42.724;23.298;2024-02-14T00:42:19;7.13;;;6.40;;
7181;SDS011;3632;42.724;23.298;2024-02-14T00:44:48;6.77;;;6.07;;
7181;SDS011;3632;42.724;23.298;2024-02-14T00:47:15;7.23;;;6.50;;
7181;SDS011;3632;42.724;23.298;2024-02-14T00:49:41;6.90;;;6.20;;
7181;SDS011;3632;42.724;23.298;2024-02-14T00:52:08;7.07;;;6.40;;
7181;SDS011;3632;42.724;23.298;2024-02-14T00:54:35;7.20;;;6.50;;
7181;SDS011;3632;42.724;23.298;2024-02-14T00:57:03;7.03;;;6.37;;
7181;SDS011;3632;42.724;23.298;2024-02-14T00:59:30;7.40;;;6.70;;
7181;SDS011;3632;42.724;23.298;2024-02-14T01:01:56;9.30;;;6.97;;
7181;SDS011;3632;42.724;23.298;2024-02-14T01:04:24;7.47;;;6.77;;
7181;SDS011;3632;42.724;23.298;2024-02-14T01:06:51;7.50;;;6.80;;
7181;SDS011;3632;42.724;23.298;2024-02-14T01:09:18;8.17;;;7.10;;
7181;SDS011;3632;42.724;23.298;2024-02-14T01:11:44;7.93;;;6.70;;
7181;SDS011;3632;42.724;23.298;2024-02-14T01:14:13;8.00;;;7.20;;
7181;SDS011;3632;42.724;23.298;2024-02-14T01:16:43;8.10;;;7.13;;
7181;SDS011;3632;42.724;23.298;2024-02-14T01:19:09;7.30;;;6.60;;
7181;SDS011;3632;42.724;23.298;2024-02-14T01:21:36;8.03;;;7.23;;
7181;SDS011;3632;42.724;23.298;2024-02-14T01:24:03;8.60;;;7.70;;
7181;SDS011;3632;42.724;23.298;2024-02-14T01:26:33;10.47;;;7.07;;
7181;SDS011;3632;42.724;23.298;2024-02-14T01:29:00;8.80;;;7.37;;
7181;SDS011;3632;42.724;23.298;2024-02-14T01:31:28;8.33;;;7.20;;
7181;SDS011;3632;42.724;23.298;2024-02-14T01:33:55;7.97;;;7.20;;
7181;SDS011;3632;42.724;23.298;2024-02-14T01:36:24;8.00;;;7.20;;
7181;SDS011;3632;42.724;23.298;2024-02-14T01:38:51;8.57;;;7.67;;
7181;SDS011;3632;42.724;23.298;2024-02-14T01:41:17;7.80;;;7.00;;
7181;SDS011;3632;42.724;23.298;2024-02-14T01:43:46;8.20;;;7.40;;
7181;SDS011;3632;42.724;23.298;2024-02-14T01:46:14;7.80;;;7.10;;
7181;SDS011;3632;42.724;23.298;2024-02-14T01:48:42;8.00;;;7.20;;
7181;SDS011;3632;42.724;23.298;2024-02-14T01:51:11;8.37;;;7.40;;
7181;SDS011;3632;42.724;23.298;2024-02-14T01:53:39;8.43;;;7.60;;
7181;SDS011;3632;42.724;23.298;2024-02-14T01:56:07;8.23;;;7.37;;
7181;SDS011;3632;42.724;23.298;2024-02-14T01:58:34;7.87;;;7.07;;
7181;SDS011;3632;42.724;23.298;2024-02-14T02:01:02;9.40;;;8.27;;
7181;SDS011;3632;42.724;23.298;2024-02-14T02:03:29;8.50;;;7.70;;
7181;SDS011;3632;42.724;23.298;2024-02-14T02:06:02;9.17;;;7.83;;
7181;SDS011;3632;42.724;23.298;2024-02-14T02:08:29;9.07;;;8.17;;
7181;SDS011;3632;42.724;23.298;2024-02-14T02:10:57;9.20;;;8.30;;
7181;SDS011;3632;42.724;23.298;2024-02-14T02:13:24;8.87;;;7.97;;
7181;SDS011;3632;42.724;23.298;2024-02-14T02:15:51;9.50;;;8.30;;
7181;SDS011;3632;42.724;23.298;2024-02-14T02:18:18;8.80;;;7.90;;
7181;SDS011;3632;42.724;23.298;2024-02-14T02:20:45;8.73;;;7.90;;
7181;SDS011;3632;42.724;23.298;2024-02-14T02:23:13;9.10;;;7.90;;
7181;SDS011;3632;42.724;23.298;2024-02-14T02:25:41;10.10;;;8.13;;
7181;SDS011;3632;42.724;23.298;2024-02-14T02:28:07;9.03;;;8.13;;
7181;SDS011;3632;42.724;23.298;2024-02-14T02:30:35;9.97;;;8.50;;
7181;SDS011;3632;42.724;23.298;2024-02-14T02:33:02;9.30;;;8.07;;
7181;SDS011;3632;42.724;23.298;2024-02-14T02:35:29;10.37;;;7.93;;
7181;SDS011;3632;42.724;23.298;2024-02-14T02:37:56;10.47;;;8.20;;
7181;SDS011;3632;42.724;23.298;2024-02-14T02:40:24;9.30;;;8.03;;
7181;SDS011;3632;42.724;23.298;2024-02-14T02:42:52;9.43;;;8.07;;
7181;SDS011;3632;42.724;23.298;2024-02-14T02:45:19;10.07;;;8.13;;
7181;SDS011;3632;42.724;23.298;2024-02-14T02:47:45;10.00;;;8.53;;
7181;SDS011;3632;42.724;23.298;2024-02-14T02:50:12;9.53;;;8.40;;
7181;SDS011;3632;42.724;23.298;2024-02-14T02:52:39;9.83;;;8.17;;
7181;SDS011;3632;42.724;23.298;2024-02-14T02:55:07;9.13;;;8.20;;
7181;SDS011;3632;42.724;23.298;2024-02-14T02:57:35;9.50;;;8.60;;
7181;SDS011;3632;42.724;23.298;2024-02-14T03:00:04;8.70;;;7.80;;
7181;SDS011;3632;42.724;23.298;2024-02-14T03:02:33;9.23;;;8.33;;
7181;SDS011;3632;42.724;23.298;2024-02-14T03:05:03;10.53;;;9.07;;
7181;SDS011;3632;42.724;23.298;2024-02-14T03:07:31;10.13;;;9.03;;
7181;SDS011;3632;42.724;23.298;2024-02-14T03:09:58;12.13;;;9.03;;
7181;SDS011;3632;42.724;23.298;2024-02-14T03:12:25;9.47;;;8.47;;
7181;SDS011;3632;42.724;23.298;2024-02-14T03:14:57;9.63;;;8.67;;
7181;SDS011;3632;42.724;23.298;2024-02-14T03:17:23;9.77;;;8.60;;
7181;SDS011;3632;42.724;23.298;2024-02-14T03:19:50;9.17;;;8.27;;
7181;SDS011;3632;42.724;23.298;2024-02-14T03:22:18;9.63;;;8.50;;
7181;SDS011;3632;42.724;23.298;2024-02-14T03:24:44;9.13;;;8.27;;
7181;SDS011;3632;42.724;23.298;2024-02-14T03:27:11;11.23;;;8.80;;
7181;SDS011;3632;42.724;23.298;2024-02-14T03:29:38;9.60;;;8.60;;
7181;SDS011;3632;42.724;23.298;2024-02-14T03:32:07;10.20;;;9.07;;
7181;SDS011;3632;42.724;23.298;2024-02-14T03:34:34;9.70;;;8.70;;
7181;SDS011;3632;42.724;23.298;2024-02-14T03:37:01;10.57;;;8.80;;
7181;SDS011;3632;42.724;23.298;2024-02-14T03:39:29;10.10;;;9.10;;
7181;SDS011;3632;42.724;23.298;2024-02-14T03:41:56;9.93;;;8.93;;
7181;SDS011;3632;42.724;23.298;2024-02-14T03:44:26;11.37;;;9.00;;
7181;SDS011;3632;42.724;23.298;2024-02-14T03:46:53;10.27;;;9.13;;
7181;SDS011;3632;42.724;23.298;2024-02-14T03:49:21;10.37;;;9.37;;
7181;SDS011;3632;42.724;23.298;2024-02-14T03:51:48;8.87;;;8.00;;
7181;SDS011;3632;42.724;23.298;2024-02-14T03:54:18;10.87;;;9.00;;
7181;SDS011;3632;42.724;23.298;2024-02-14T03:56:44;9.87;;;8.83;;
7181;SDS011;3632;42.724;23.298;2024-02-14T03:59:11;10.07;;;9.03;;
7181;SDS011;3632;42.724;23.298;2024-02-14T04:01:43;11.47;;;9.20;;
7181;SDS011;3632;42.724;23.298;2024-02-14T04:04:10;9.53;;;8.60;;
7181;SDS011;3632;42.724;23.298;2024-02-14T04:06:38;9.07;;;8.20;;
7181;SDS011;3632;42.724;23.298;2024-02-14T04:09:05;9.90;;;8.90;;
7181;SDS011;3632;42.724;23.298;2024-02-14T04:11:32;11.13;;;8.87;;
7181;SDS011;3632;42.724;23.298;2024-02-14T04:13:59;10.50;;;9.50;;
7181;SDS011;3632;42.724;23.298;2024-02-14T04:16:26;10.13;;;9.13;;
7181;SDS011;3632;42.724;23.298;2024-02-14T04:18:53;12.53;;;9.10;;
7181;SDS011;3632;42.724;23.298;2024-02-14T04:21:21;9.97;;;8.73;;
7181;SDS011;3632;42.724;23.298;2024-02-14T04:23:49;10.77;;;9.67;;
7181;SDS011;3632;42.724;23.298;2024-02-14T04:26:19;11.27;;;10.17;;
7181;SDS011;3632;42.724;23.298;2024-02-14T04:28:46;11.23;;;10.03;;
7181;SDS011;3632;42.724;23.298;2024-02-14T04:31:13;11.50;;;10.20;;
7181;SDS011;3632;42.724;23.298;2024-02-14T04:33:40;12.23;;;10.13;;
7181;SDS011;3632;42.724;23.298;2024-02-14T04:36:08;11.03;;;9.93;;
7181;SDS011;3632;42.724;23.298;2024-02-14T04:38:36;12.20;;;10.47;;
7181;SDS011;3632;42.724;23.298;2024-02-14T04:41:04;11.07;;;9.87;;
7181;SDS011;3632;42.724;23.298;2024-02-14T04:43:31;12.83;;;10.80;;
7181;SDS011;3632;42.724;23.298;2024-02-14T04:45:57;10.40;;;9.40;;
7181;SDS011;3632;42.724;23.298;2024-02-14T04:48:24;12.07;;;10.63;;
7181;SDS011;3632;42.724;23.298;2024-02-14T04:50:52;12.00;;;10.33;;
7181;SDS011;3632;42.724;23.298;2024-02-14T04:53:18;11.40;;;10.20;;
7181;SDS011;3632;42.724;23.298;2024-02-14T04:55:46;11.80;;;10.33;;
7181;SDS011;3632;42.724;23.298;2024-02-14T04:58:14;12.33;;;10.87;;
7181;SDS011;3632;42.724;23.298;2024-02-14T05:00:40;11.83;;;10.63;;
7181;SDS011;3632;42.724;23.298;2024-02-14T05:03:07;12.10;;;10.80;;
7181;SDS011;3632;42.724;23.298;2024-02-14T05:05:35;15.20;;;11.67;;
7181;SDS011;3632;42.724;23.298;2024-02-14T05:08:02;13.23;;;11.83;;
7181;SDS011;3632;42.724;23.298;2024-02-14T05:10:28;12.87;;;11.43;;
7181;SDS011;3632;42.724;23.298;2024-02-14T05:12:56;13.17;;;11.77;;
7181;SDS011;3632;42.724;23.298;2024-02-14T05:15:24;13.77;;;11.97;;
7181;SDS011;3632;42.724;23.298;2024-02-14T05:17:51;14.50;;;12.10;;
7181;SDS011;3632;42.724;23.298;2024-02-14T05:20:18;15.23;;;12.30;;
7181;SDS011;3632;42.724;23.298;2024-02-14T05:22:44;14.93;;;12.13;;
7181;SDS011;3632;42.724;23.298;2024-02-14T05:25:11;13.90;;;12.50;;
7181;SDS011;3632;42.724;23.298;2024-02-14T05:27:38;12.73;;;11.43;;
7181;SDS011;3632;42.724;23.298;2024-02-14T05:30:05;13.23;;;11.90;;
7181;SDS011;3632;42.724;23.298;2024-02-14T05:32:34;12.83;;;11.47;;
7181;SDS011;3632;42.724;23.298;2024-02-14T05:35:01;13.20;;;11.83;;
7181;SDS011;3632;42.724;23.298;2024-02-14T05:37:31;12.80;;;11.50;;
7181;SDS011;3632;42.724;23.298;2024-02-14T05:39:57;12.80;;;11.60;;
7181;SDS011;3632;42.724;23.298;2024-02-14T05:42:25;12.50;;;11.07;;
7181;SDS011;3632;42.724;23.298;2024-02-14T05:44:51;12.87;;;11.57;;
7181;SDS011;3632;42.724;23.298;2024-02-14T05:47:18;14.30;;;11.70;;
7181;SDS011;3632;42.724;23.298;2024-02-14T05:49:46;13.93;;;11.50;;
7181;SDS011;3632;42.724;23.298;2024-02-14T05:52:13;13.87;;;11.53;;
7181;SDS011;3632;42.724;23.298;2024-02-14T05:54:41;12.57;;;11.27;;
7181;SDS011;3632;42.724;23.298;2024-02-14T05:57:07;12.93;;;11.63;;
7181;SDS011;3632;42.724;23.298;2024-02-14T05:59:34;16.27;;;12.13;;
7181;SDS011;3632;42.724;23.298;2024-02-14T06:02:01;14.53;;;12.03;;
7181;SDS011;3632;42.724;23.298;2024-02-14T06:04:28;12.83;;;11.50;;
7181;SDS011;3632;42.724;23.298;2024-02-14T06:06:56;14.70;;;12.10;;
7181;SDS011;3632;42.724;23.298;2024-02-14T06:09:23;12.43;;;10.70;;
7181;SDS011;3632;42.724;23.298;2024-02-14T06:11:50;15.57;;;11.57;;
7181;SDS011;3632;42.724;23.298;2024-02-14T06:14:17;13.00;;;11.27;;
7181;SDS011;3632;42.724;23.298;2024-02-14T06:16:44;14.03;;;10.73;;
7181;SDS011;3632;42.724;23.298;2024-02-14T06:19:11;12.17;;;10.87;;
7181;SDS011;3632;42.724;23.298;2024-02-14T06:21:37;12.87;;;10.83;;
7181;SDS011;3632;42.724;23.298;2024-02-14T06:24:06;13.37;;;10.80;;
7181;SDS011;3632;42.724;23.298;2024-02-14T06:26:32;12.07;;;10.40;;
7181;SDS011;3632;42.724;23.298;2024-02-14T06:28:59;12.43;;;10.23;;
7181;SDS011;3632;42.724;23.298;2024-02-14T06:31:26;11.80;;;10.30;;
7181;SDS011;3632;42.724;23.298;2024-02-14T06:33:52;13.77;;;10.67;;
7181;SDS011;3632;42.724;23.298;2024-02-14T06:36:19;11.57;;;10.37;;
7181;SDS011;3632;42.724;23.298;2024-02-14T06:38:46;12.50;;;9.57;;
7181;SDS011;3632;42.724;23.298;2024-02-14T06:41:14;11.57;;;9.97;;
7181;SDS011;3632;42.724;23.298;2024-02-14T06:43:40;11.40;;;10.20;;
7181;SDS011;3632;42.724;23.298;2024-02-14T06:46:07;12.60;;;10.03;;
7181;SDS011;3632;42.724;23.298;2024-02-14T06:48:34;10.97;;;9.43;;
7181;SDS011;3632;42.724;23.298;2024-02-14T06:51:00;10.63;;;9.53;;
7181;SDS011;3632;42.724;23.298;2024-02-14T06:53:27;10.40;;;9.33;;
7181;SDS011;3632;42.724;23.298;2024-02-14T06:55:54;11.67;;;9.20;;
7181;SDS011;3632;42.724;23.298;2024-02-14T06:58:22;10.53;;;9.40;;
7181;SDS011;3632;42.724;23.298;2024-02-14T07:00:49;10.93;;;9.83;;
7181;SDS011;3632;42.724;23.298;2024-02-14T07:03:16;10.10;;;9.10;;
7181;SDS011;3632;42.724;23.298;2024-02-14T07:05:42;11.53;;;8.87;;
7181;SDS011;3632;42.724;23.298;2024-02-14T07:08:09;9.53;;;8.47;;
7181;SDS011;3632;42.724;23.298;2024-02-14T07:10:36;10.70;;;9.00;;
7181;SDS011;3632;42.724;23.298;2024-02-14T07:13:03;10.67;;;8.60;;
7181;SDS011;3632;42.724;23.298;2024-02-14T07:15:31;11.47;;;8.93;;
7181;SDS011;3632;42.724;23.298;2024-02-14T07:17:58;12.80;;;9.00;;
7181;SDS011;3632;42.724;23.298;2024-02-14T07:20:24;10.37;;;8.83;;
7181;SDS011;3632;42.724;23.298;2024-02-14T07:22:52;11.57;;;8.77;;
7181;SDS011;3632;42.724;23.298;2024-02-14T07:25:20;10.90;;;9.13;;
7181;SDS011;3632;42.724;23.298;2024-02-14T07:27:47;13.97;;;8.77;;
7181;SDS011;3632;42.724;23.298;2024-02-14T07:30:14;10.43;;;8.23;;
7181;SDS011;3632;42.724;23.298;2024-02-14T07:32:43;9.00;;;8.10;;
7181;SDS011;3632;42.724;23.298;2024-02-14T07:35:09;10.27;;;9.00;;
7181;SDS011;3632;42.724;23.298;2024-02-14T07:37:38;9.23;;;8.27;;
7181;SDS011;3632;42.724;23.298;2024-02-14T07:40:05;9.27;;;8.37;;
7181;SDS011;3632;42.724;23.298;2024-02-14T07:42:32;10.80;;;8.30;;
7181;SDS011;3632;42.724;23.298;2024-02-14T07:44:59;8.93;;;8.03;;
7181;SDS011;3632;42.724;23.298;2024-02-14T07:47:28;9.20;;;8.10;;
7181;SDS011;3632;42.724;23.298;2024-02-14T07:49:56;10.23;;;8.47;;
7181;SDS011;3632;42.724;23.298;2024-02-14T07:52:23;9.60;;;8.23;;
7181;SDS011;3632;42.724;23.298;2024-02-14T07:54:51;8.67;;;7.80;;
7181;SDS011;3632;42.724;23.298;2024-02-14T07:57:18;8.77;;;7.87;;
7181;SDS011;3632;42.724;23.298;2024-02-14T07:59:45;9.97;;;7.63;;
7181;SDS011;3632;42.724;23.298;2024-02-14T08:02:12;8.47;;;7.53;;
7181;SDS011;3632;42.724;23.298;2024-02-14T08:04:39;9.23;;;7.60;;
7181;SDS011;3632;42.724;23.298;2024-02-14T08:07:07;8.73;;;7.83;;
7181;SDS011;3632;42.724;23.298;2024-02-14T08:09:33;8.57;;;7.77;;
7181;SDS011;3632;42.724;23.298;2024-02-14T08:12:00;10.30;;;7.77;;
7181;SDS011;3632;42.724;23.298;2024-02-14T08:14:27;9.07;;;8.07;;
7181;SDS011;3632;42.724;23.298;2024-02-14T08:16:53;11.00;;;8.40;;
7181;SDS011;3632;42.724;23.298;2024-02-14T08:19:20;9.60;;;8.20;;
7181;SDS011;3632;42.724;23.298;2024-02-14T08:21:47;10.37;;;7.40;;
7181;SDS011;3632;42.724;23.298;2024-02-14T08:24:15;10.77;;;7.83;;
7181;SDS011;3632;42.724;23.298;2024-02-14T08:26:42;10.07;;;7.77;;
7181;SDS011;3632;42.724;23.298;2024-02-14T08:29:09;8.60;;;7.17;;
7181;SDS011;3632;42.724;23.298;2024-02-14T08:31:36;8.07;;;7.07;;
7181;SDS011;3632;42.724;23.298;2024-02-14T08:34:03;8.70;;;7.33;;
7181;SDS011;3632;42.724;23.298;2024-02-14T08:36:30;8.77;;;6.97;;
7181;SDS011;3632;42.724;23.298;2024-02-14T08:38:57;9.10;;;6.97;;
7181;SDS011;3632;42.724;23.298;2024-02-14T08:41:25;8.37;;;7.40;;
7181;SDS011;3632;42.724;23.298;2024-02-14T08:43:51;7.47;;;6.73;;
7181;SDS011;3632;42.724;23.298;2024-02-14T08:46:18;8.17;;;6.87;;
7181;SDS011;3632;42.724;23.298;2024-02-14T08:48:45;7.90;;;7.10;;
7181;SDS011;3632;42.724;23.298;2024-02-14T08:51:12;7.73;;;6.93;;
7181;SDS011;3632;42.724;23.298;2024-02-14T08:53:39;8.57;;;7.17;;
7181;SDS011;3632;42.724;23.298;2024-02-14T08:56:07;7.67;;;6.90;;
7181;SDS011;3632;42.724;23.298;2024-02-14T08:58:35;11.03;;;8.67;;
7181;SDS011;3632;42.724;23.298;2024-02-14T09:01:02;9.20;;;7.70;;
7181;SDS011;3632;42.724;23.298;2024-02-14T09:03:29;13.13;;;9.83;;
7181;SDS011;3632;42.724;23.298;2024-02-14T09:05:56;8.03;;;7.20;;
7181;SDS011;3632;42.724;23.298;2024-02-14T09:08:23;12.30;;;7.43;;
7181;SDS011;3632;42.724;23.298;2024-02-14T09:10:50;8.93;;;7.30;;
7181;SDS011;3632;42.724;23.298;2024-02-14T09:13:17;8.40;;;7.50;;
7181;SDS011;3632;42.724;23.298;2024-02-14T09:15:45;8.27;;;7.00;;
7181;SDS011;3632;42.724;23.298;2024-02-14T09:18:13;8.03;;;7.17;;
7181;SDS011;3632;42.724;23.298;2024-02-14T09:20:44;9.30;;;7.33;;
7181;SDS011;3632;42.724;23.298;2024-02-14T09:23:11;9.37;;;7.60;;
7181;SDS011;3632;42.724;23.298;2024-02-14T09:25:38;8.10;;;7.40;;
7181;SDS011;3632;42.724;23.298;2024-02-14T09:28:05;9.87;;;8.23;;
7181;SDS011;3632;42.724;23.298;2024-02-14T09:30:34;8.50;;;7.57;;
7181;SDS011;3632;42.724;23.298;2024-02-14T09:33:02;8.43;;;7.53;;
7181;SDS011;3632;42.724;23.298;2024-02-14T09:35:30;8.80;;;7.23;;
7181;SDS011;3632;42.724;23.298;2024-02-14T09:37:57;10.00;;;7.30;;
7181;SDS011;3632;42.724;23.298;2024-02-14T09:40:24;8.67;;;7.63;;
7181;SDS011;3632;42.724;23.298;2024-02-14T09:42:52;9.23;;;6.83;;
7181;SDS011;3632;42.724;23.298;2024-02-14T09:45:20;9.07;;;7.07;;
7181;SDS011;3632;42.724;23.298;2024-02-14T09:47:50;9.07;;;6.57;;
7181;SDS011;3632;42.724;23.298;2024-02-14T09:50:19;7.53;;;6.83;;
7181;SDS011;3632;42.724;23.298;2024-02-14T09:52:47;10.63;;;7.27;;
7181;SDS011;3632;42.724;23.298;2024-02-14T09:55:15;11.27;;;8.53;;
7181;SDS011;3632;42.724;23.298;2024-02-14T09:57:42;10.83;;;7.90;;
7181;SDS011;3632;42.724;23.298;2024-02-14T10:00:10;9.03;;;7.10;;
7181;SDS011;3632;42.724;23.298;2024-02-14T10:02:39;10.23;;;7.17;;
7181;SDS011;3632;42.724;23.298;2024-02-14T10:05:06;9.13;;;7.67;;
7181;SDS011;3632;42.724;23.298;2024-02-14T10:07:40;9.23;;;7.60;;
7181;SDS011;3632;42.724;23.298;2024-02-14T10:10:08;8.50;;;7.47;;
7181;SDS011;3632;42.724;23.298;2024-02-14T10:12:36;8.17;;;7.23;;
7181;SDS011;3632;42.724;23.298;2024-02-14T10:15:04;7.80;;;7.07;;
7181;SDS011;3632;42.724;23.298;2024-02-14T10:17:32;7.37;;;6.67;;
7181;SDS011;3632;42.724;23.298;2024-02-14T10:19:59;8.20;;;7.17;;
7181;SDS011;3632;42.724;23.298;2024-02-14T10:22:32;7.77;;;6.73;;
7181;SDS011;3632;42.724;23.298;2024-02-14T10:25:02;8.93;;;7.00;;
7181;SDS011;3632;42.724;23.298;2024-02-14T10:27:29;10.47;;;7.47;;
7181;SDS011;3632;42.724;23.298;2024-02-14T10:29:56;9.23;;;7.60;;
7181;SDS011;3632;42.724;23.298;2024-02-14T10:32:23;8.23;;;7.20;;
7181;SDS011;3632;42.724;23.298;2024-02-14T10:34:50;9.87;;;6.93;;
7181;SDS011;3632;42.724;23.298;2024-02-14T10:37:18;7.90;;;6.60;;
7181;SDS011;3632;42.724;23.298;2024-02-14T10:39:47;7.40;;;6.40;;
7181;SDS011;3632;42.724;23.298;2024-02-14T10:42:19;6.57;;;5.97;;
7181;SDS011;3632;42.724;23.298;2024-02-14T10:44:46;7.23;;;6.43;;
7181;SDS011;3632;42.724;23.298;2024-02-14T10:47:15;8.67;;;6.40;;
7181;SDS011;3632;42.724;23.298;2024-02-14T10:49:47;7.30;;;6.60;;
7181;SDS011;3632;42.724;23.298;2024-02-14T10:52:16;8.17;;;6.77;;
7181;SDS011;3632;42.724;23.298;2024-02-14T10:54:45;7.93;;;7.13;;
7181;SDS011;3632;42.724;23.298;2024-02-14T10:57:20;7.80;;;6.90;;
7181;SDS011;3632;42.724;23.298;2024-02-14T10:59:50;9.83;;;7.60;;
7181;SDS011;3632;42.724;23.298;2024-02-14T11:02:18;8.47;;;7.57;;
7181;SDS011;3632;42.724;23.298;2024-02-14T11:04:46;7.33;;;6.27;;
7181;SDS011;3632;42.724;23.298;2024-02-14T11:07:13;11.43;;;7.10;;
7181;SDS011;3632;42.724;23.298;2024-02-14T11:09:43;7.47;;;6.77;;
7181;SDS011;3632;42.724;23.298;2024-02-14T11:12:10;8.87;;;6.87;;
7181;SDS011;3632;42.724;23.298;2024-02-14T11:14:41;9.13;;;7.33;;
7181;SDS011;3632;42.724;23.298;2024-02-14T11:17:10;7.80;;;6.77;;
7181;SDS011;3632;42.724;23.298;2024-02-14T11:19:38;11.40;;;6.80;;
7181;SDS011;3632;42.724;23.298;2024-02-14T11:22:11;9.57;;;7.40;;
7181;SDS011;3632;42.724;23.298;2024-02-14T11:24:39;7.93;;;7.13;;
7181;SDS011;3632;42.724;23.298;2024-02-14T11:27:09;8.73;;;7.37;;
7181;SDS011;3632;42.724;23.298;2024-02-14T11:29:40;11.43;;;7.33;;
7181;SDS011;3632;42.724;23.298;2024-02-14T11:32:07;8.27;;;7.17;;
7181;SDS011;3632;42.724;23.298;2024-02-14T11:34:35;10.63;;;7.80;;
7181;SDS011;3632;42.724;23.298;2024-02-14T11:37:02;10.83;;;7.73;;
7181;SDS011;3632;42.724;23.298;2024-02-14T11:39:29;8.67;;;7.53;;
7181;SDS011;3632;42.724;23.298;2024-02-14T11:41:56;8.33;;;7.00;;
7181;SDS011;3632;42.724;23.298;2024-02-14T11:44:24;8.93;;;6.73;;
7181;SDS011;3632;42.724;23.298;2024-02-14T11:46:53;9.07;;;7.27;;
7181;SDS011;3632;42.724;23.298;2024-02-14T11:49:20;11.57;;;7.30;;
7181;SDS011;3632;42.724;23.298;2024-02-14T11:51:47;10.00;;;7.53;;
7181;SDS011;3632;42.724;23.298;2024-02-14T11:54:14;7.90;;;7.00;;
7181;SDS011;3632;42.724;23.298;2024-02-14T11:56:43;7.97;;;6.60;;
7181;SDS011;3632;42.724;23.298;2024-02-14T11:59:09;10.30;;;6.93;;
7181;SDS011;3632;42.724;23.298;2024-02-14T12:01:36;8.37;;;6.90;;
7181;SDS011;3632;42.724;23.298;2024-02-14T12:04:05;9.93;;;7.10;;
7181;SDS011;3632;42.724;23.298;2024-02-14T12:06:36;14.33;;;9.17;;
7181;SDS011;3632;42.724;23.298;2024-02-14T12:09:07;12.23;;;7.17;;
7181;SDS011;3632;42.724;23.298;2024-02-14T12:11:34;10.80;;;8.53;;
7181;SDS011;3632;42.724;23.298;2024-02-14T12:14:02;8.73;;;6.50;;
7181;SDS011;3632;42.724;23.298;2024-02-14T12:16:29;7.50;;;6.70;;
7181;SDS011;3632;42.724;23.298;2024-02-14T12:19:07;9.23;;;6.70;;
7181;SDS011;3632;42.724;23.298;2024-02-14T12:21:35;8.60;;;6.67;;
7181;SDS011;3632;42.724;23.298;2024-02-14T12:24:03;8.17;;;6.57;;
7181;SDS011;3632;42.724;23.298;2024-02-14T12:26:31;9.00;;;7.50;;
7181;SDS011;3632;42.724;23.298;2024-02-14T12:29:00;9.70;;;7.10;;
7181;SDS011;3632;42.724;23.298;2024-02-14T12:31:28;10.33;;;7.00;;
7181;SDS011;3632;42.724;23.298;2024-02-14T12:33:56;8.77;;;6.87;;
7181;SDS011;3632;42.724;23.298;2024-02-14T12:36:26;11.00;;;6.60;;
7181;SDS011;3632;42.724;23.298;2024-02-14T12:38:54;8.53;;;6.70;;
7181;SDS011;3632;42.724;23.298;2024-02-14T12:41:20;13.67;;;7.10;;
7181;SDS011;3632;42.724;23.298;2024-02-14T12:43:48;11.80;;;6.97;;
7181;SDS011;3632;42.724;23.298;2024-02-14T12:46:15;9.27;;;7.37;;
7181;SDS011;3632;42.724;23.298;2024-02-14T12:48:42;7.10;;;6.40;;
7181;SDS011;3632;42.724;23.298;2024-02-14T12:51:09;13.83;;;7.93;;
7181;SDS011;3632;42.724;23.298;2024-02-14T12:53:37;7.80;;;6.53;;
7181;SDS011;3632;42.724;23.298;2024-02-14T12:56:05;7.63;;;6.43;;
7181;SDS011;3632;42.724;23.298;2024-02-14T12:58:32;7.47;;;6.67;;
7181;SDS011;3632;42.724;23.298;2024-02-14T13:00:59;9.80;;;6.43;;
7181;SDS011;3632;42.724;23.298;2024-02-14T13:03:30;6.07;;;5.43;;
7181;SDS011;3632;42.724;23.298;2024-02-14T13:05:58;9.07;;;7.13;;
7181;SDS011;3632;42.724;23.298;2024-02-14T13:08:26;11.90;;;7.23;;
7181;SDS011;3632;42.724;23.298;2024-02-14T13:10:54;8.03;;;6.07;;
7181;SDS011;3632;42.724;23.298;2024-02-14T13:13:22;9.07;;;6.70;;
7181;SDS011;3632;42.724;23.298;2024-02-14T13:15:48;12.60;;;6.37;;
7181;SDS011;3632;42.724;23.298;2024-02-14T13:18:15;8.03;;;6.60;;
7181;SDS011;3632;42.724;23.298;2024-02-14T13:20:42;9.80;;;6.57;;
7181;SDS011;3632;42.724;23.298;2024-02-14T13:23:10;10.57;;;6.60;;
7181;SDS011;3632;42.724;23.298;2024-02-14T13:25:37;11.40;;;6.43;;
7181;SDS011;3632;42.724;23.298;2024-02-14T13:28:05;9.63;;;6.83;;
7181;SDS011;3632;42.724;23.298;2024-02-14T13:30:32;10.90;;;8.17;;
7181;SDS011;3632;42.724;23.298;2024-02-14T13:32:59;8.80;;;5.60;;
7181;SDS011;3632;42.724;23.298;2024-02-14T13:35:26;9.10;;;5.93;;
7181;SDS011;3632;42.724;23.298;2024-02-14T13:37:53;7.50;;;5.87;;
7181;SDS011;3632;42.724;23.298;2024-02-14T13:40:21;6.90;;;5.50;;
7181;SDS011;3632;42.724;23.298;2024-02-14T13:42:48;10.03;;;6.00;;
7181;SDS011;3632;42.724;23.298;2024-02-14T13:45:16;8.57;;;6.50;;
7181;SDS011;3632;42.724;23.298;2024-02-14T13:47:42;10.97;;;8.10;;
7181;SDS011;3632;42.724;23.298;2024-02-14T13:50:10;11.10;;;6.73;;
7181;SDS011;3632;42.724;23.298;2024-02-14T13:52:37;10.00;;;6.47;;
7181;SDS011;3632;42.724;23.298;2024-02-14T13:55:04;11.77;;;6.40;;
7181;SDS011;3632;42.724;23.298;2024-02-14T14:00:00;11.60;;;6.80;;
7181;SDS011;3632;42.724;23.298;2024-02-14T14:02:28;11.23;;;6.30;;
7181;SDS011;3632;42.724;23.298;2024-02-14T14:04:55;9.50;;;6.40;;
7181;SDS011;3632;42.724;23.298;2024-02-14T14:07:22;9.73;;;6.50;;
7181;SDS011;3632;42.724;23.298;2024-02-14T14:09:49;10.90;;;5.87;;
7181;SDS011;3632;42.724;23.298;2024-02-14T14:12:16;10.97;;;5.97;;
7181;SDS011;3632;42.724;23.298;2024-02-14T14:14:44;8.97;;;6.10;;
7181;SDS011;3632;42.724;23.298;2024-02-14T14:17:12;7.90;;;6.07;;
7181;SDS011;3632;42.724;23.298;2024-02-14T14:19:40;10.03;;;6.17;;
7181;SDS011;3632;42.724;23.298;2024-02-14T14:22:06;10.23;;;6.60;;
7181;SDS011;3632;42.724;23.298;2024-02-14T14:24:34;9.03;;;6.17;;
7181;SDS011;3632;42.724;23.298;2024-02-14T14:27:01;10.53;;;7.27;;
7181;SDS011;3632;42.724;23.298;2024-02-14T14:29:27;12.10;;;6.57;;
7181;SDS011;3632;42.724;23.298;2024-02-14T14:31:54;10.73;;;6.93;;
7181;SDS011;3632;42.724;23.298;2024-02-14T14:34:21;9.57;;;6.83;;
7181;SDS011;3632;42.724;23.298;2024-02-14T14:36:49;10.63;;;6.20;;
7181;SDS011;3632;42.724;23.298;2024-02-14T14:39:18;9.97;;;6.50;;
7181;SDS011;3632;42.724;23.298;2024-02-14T14:41:45;8.47;;;6.83;;
7181;SDS011;3632;42.724;23.298;2024-02-14T14:44:11;12.80;;;7.43;;
7181;SDS011;3632;42.724;23.298;2024-02-14T14:46:38;13.47;;;6.93;;
7181;SDS011;3632;42.724;23.298;2024-02-14T14:49:07;9.80;;;6.93;;
7181;SDS011;3632;42.724;23.298;2024-02-14T14:51:34;12.30;;;6.80;;
7181;SDS011;3632;42.724;23.298;2024-02-14T14:54:02;11.33;;;6.80;;
7181;SDS011;3632;42.724;23.298;2024-02-14T14:56:29;11.13;;;7.20;;